createdAt,value
2023-10-10T00:01:46.015Z,100.00
2023-10-10T00:04:13.884Z,100.00
2023-10-10T00:06:42.234Z,100.00
2023-10-10T00:09:12.221Z,100.00
2023-10-10T00:11:43.374Z,100.00
2023-10-10T00:14:19.294Z,100.00
2023-10-10T00:16:49.313Z,100.00
2023-10-10T00:19:21.926Z,100.00
2023-10-10T00:21:49.967Z,100.00
2023-10-10T00:24:21.685Z,100.00
2023-10-10T00:26:51.722Z,100.00
2023-10-10T00:29:27.879Z,100.00
2023-10-10T00:32:07.019Z,100.00
2023-10-10T00:34:38.493Z,100.00
2023-10-10T00:37:14.453Z,100.00
2023-10-10T00:39:42.140Z,100.00
2023-10-10T00:42:20.997Z,100.00
2023-10-10T00:44:49.749Z,100.00
2023-10-10T00:47:22.742Z,100.00
2023-10-10T00:49:51.568Z,100.00
2023-10-10T00:52:19.649Z,100.00
2023-10-10T00:54:48.511Z,100.00
2023-10-10T00:57:18.920Z,100.00
2023-10-10T00:59:54.773Z,100.00
2023-10-10T01:02:22.265Z,100.00
2023-10-10T01:04:51.493Z,100.00
2023-10-10T01:07:23.031Z,100.00
2023-10-10T01:09:57.830Z,100.00
2023-10-10T01:12:30.191Z,100.00
2023-10-10T01:14:58.992Z,100.00
2023-10-10T01:17:33.817Z,100.00
2023-10-10T01:20:35.312Z,100.00
2023-10-10T01:23:04.518Z,100.00
2023-10-10T01:25:34.117Z,100.00
2023-10-10T01:28:15.082Z,100.00
2023-10-10T01:30:58.689Z,100.00
2023-10-10T01:33:37.957Z,100.00
2023-10-10T01:36:23.064Z,100.00
2023-10-10T01:39:01.319Z,100.00
2023-10-10T01:41:41.459Z,100.00
2023-10-10T01:44:24.306Z,100.00
2023-10-10T01:46:54.512Z,100.00
2023-10-10T01:49:23.054Z,100.00
2023-10-10T01:51:57.422Z,100.00
2023-10-10T01:54:36.130Z,100.00
2023-10-10T01:57:08.617Z,100.00
2023-10-10T01:59:40.156Z,100.00
2023-10-10T02:02:12.203Z,100.00
2023-10-10T02:04:40.873Z,100.00
2023-10-10T02:07:15.514Z,100.00
2023-10-10T02:09:44.922Z,100.00
2023-10-10T02:12:18.215Z,100.00
2023-10-10T02:14:45.372Z,100.00
2023-10-10T02:17:28.128Z,100.00
2023-10-10T02:19:59.583Z,100.00
2023-10-10T02:22:48.958Z,100.00
2023-10-10T02:25:25.892Z,100.00
2023-10-10T02:27:56.616Z,100.00
2023-10-10T02:30:38.176Z,100.00
2023-10-10T02:33:18.347Z,100.00
2023-10-10T02:36:04.534Z,100.00
2023-10-10T02:38:34.593Z,100.00
2023-10-10T02:41:34.524Z,100.00
2023-10-10T02:44:11.258Z,100.00
2023-10-10T02:46:44.105Z,100.00
2023-10-10T02:49:31.789Z,100.00
2023-10-10T02:52:02.432Z,100.00
2023-10-10T02:54:35.792Z,100.00
2023-10-10T02:57:23.235Z,100.00
2023-10-10T03:00:00.646Z,100.00
2023-10-10T03:02:31.841Z,100.00
2023-10-10T03:05:03.037Z,100.00
2023-10-10T03:07:31.464Z,100.00
2023-10-10T03:10:23.794Z,100.00
2023-10-10T03:12:54.151Z,100.00
2023-10-10T03:15:21.609Z,100.00
2023-10-10T03:18:10.705Z,100.00
2023-10-10T03:20:38.910Z,100.00
2023-10-10T03:23:15.710Z,100.00
2023-10-10T03:26:05.393Z,100.00
2023-10-10T03:28:48.749Z,100.00
2023-10-10T03:31:15.950Z,100.00
2023-10-10T03:33:44.983Z,100.00
2023-10-10T03:36:19.984Z,100.00
2023-10-10T03:38:50.197Z,100.00
2023-10-10T03:41:24.990Z,100.00
2023-10-10T03:44:15.620Z,100.00
2023-10-10T03:46:56.982Z,100.00
2023-10-10T03:49:51.774Z,100.00
2023-10-10T03:52:43.889Z,100.00
2023-10-10T03:55:30.040Z,100.00
2023-10-10T03:58:15.609Z,100.00
2023-10-10T04:01:00.862Z,100.00
2023-10-10T04:03:46.363Z,100.00
2023-10-10T04:06:32.446Z,100.00
2023-10-10T04:09:17.889Z,100.00
2023-10-10T04:12:03.642Z,100.00
2023-10-10T04:14:49.148Z,100.00
2023-10-10T04:17:34.637Z,100.00
2023-10-10T04:20:20.350Z,100.00
2023-10-10T04:23:05.508Z,100.00
2023-10-10T04:25:50.979Z,100.00
2023-10-10T04:28:36.243Z,100.00
2023-10-10T04:31:25.743Z,100.00
2023-10-10T04:34:11.854Z,100.00
2023-10-10T04:36:57.249Z,100.00
2023-10-10T04:39:43.091Z,100.00
2023-10-10T04:42:28.438Z,100.00
2023-10-10T04:45:13.945Z,100.00
2023-10-10T04:47:59.704Z,100.00
2023-10-10T04:50:45.424Z,100.00
2023-10-10T04:53:30.683Z,100.00
2023-10-10T04:56:17.393Z,100.00
2023-10-10T04:59:03.179Z,100.00
2023-10-10T05:01:48.899Z,100.00
2023-10-10T05:04:34.419Z,100.00
2023-10-10T05:07:19.751Z,100.00
2023-10-10T05:10:05.153Z,100.00
2023-10-10T05:12:50.526Z,100.00
2023-10-10T05:15:35.670Z,100.00
2023-10-10T05:18:20.787Z,100.00
2023-10-10T05:21:06.481Z,100.00
2023-10-10T05:23:36.299Z,100.00
2023-10-10T05:26:07.270Z,100.00
2023-10-10T05:28:34.257Z,100.00
2023-10-10T05:31:04.746Z,100.00
2023-10-10T05:33:32.235Z,100.00
2023-10-10T05:36:01.056Z,100.00
2023-10-10T05:38:28.171Z,100.00
2023-10-10T05:40:55.679Z,100.00
2023-10-10T05:43:27.762Z,100.00
2023-10-10T05:45:55.424Z,100.00
2023-10-10T05:48:23.130Z,100.00
2023-10-10T05:50:50.159Z,100.00
2023-10-10T05:53:18.418Z,100.00
2023-10-10T05:55:51.639Z,100.00
2023-10-10T05:58:19.483Z,100.00
2023-10-10T06:00:50.494Z,100.00
2023-10-10T06:03:18.391Z,100.00
2023-10-10T06:05:45.823Z,100.00
2023-10-10T06:08:14.355Z,100.00
2023-10-10T06:10:41.404Z,100.00
2023-10-10T06:13:08.813Z,100.00
2023-10-10T06:15:36.530Z,100.00
2023-10-10T06:18:19.625Z,100.00
2023-10-10T06:21:03.043Z,100.00
2023-10-10T06:23:35.257Z,100.00
2023-10-10T06:26:03.897Z,100.00
2023-10-10T06:28:37.270Z,100.00
2023-10-10T06:31:11.501Z,100.00
2023-10-10T06:33:42.485Z,100.00
2023-10-10T06:36:40.135Z,100.00
2023-10-10T06:39:06.931Z,100.00
2023-10-10T06:41:43.454Z,100.00
2023-10-10T06:44:18.622Z,100.00
2023-10-10T06:46:49.935Z,100.00
2023-10-10T06:49:17.371Z,100.00
2023-10-10T06:51:44.408Z,100.00
2023-10-10T06:54:28.827Z,100.00
2023-10-10T06:57:02.364Z,100.00
2023-10-10T06:59:30.282Z,100.00
2023-10-10T07:02:01.757Z,100.00
2023-10-10T07:04:29.336Z,100.00
2023-10-10T07:07:02.100Z,100.00
2023-10-10T07:09:32.637Z,100.00
2023-10-10T07:12:12.833Z,100.00
2023-10-10T07:14:48.243Z,100.00
2023-10-10T07:17:15.889Z,100.00
2023-10-10T07:20:03.957Z,100.00
2023-10-10T07:22:35.896Z,100.00
2023-10-10T07:25:25.742Z,100.00
2023-10-10T07:27:52.665Z,100.00
2023-10-10T07:30:19.960Z,100.00
2023-10-10T07:32:51.675Z,100.00
2023-10-10T07:35:26.763Z,100.00
2023-10-10T07:37:54.463Z,100.00
2023-10-10T07:40:22.338Z,100.00
2023-10-10T07:43:00.381Z,100.00
2023-10-10T07:45:43.255Z,100.00
2023-10-10T07:48:11.550Z,100.00
2023-10-10T07:50:57.251Z,100.00
2023-10-10T07:53:35.429Z,100.00
2023-10-10T07:56:02.624Z,100.00
2023-10-10T07:58:52.757Z,100.00
2023-10-10T08:01:20.743Z,100.00
2023-10-10T08:03:48.746Z,100.00
2023-10-10T08:06:23.503Z,100.00
2023-10-10T08:09:12.081Z,100.00
2023-10-10T08:11:39.394Z,100.00
2023-10-10T08:14:13.299Z,100.00
2023-10-10T08:16:42.339Z,100.00
2023-10-10T08:19:11.850Z,100.00
2023-10-10T08:21:40.741Z,100.00
2023-10-10T08:24:09.307Z,100.00
2023-10-10T08:26:42.588Z,100.00
2023-10-10T08:29:10.645Z,100.00
2023-10-10T08:31:39.419Z,100.00
2023-10-10T08:34:09.816Z,100.00
2023-10-10T08:36:38.500Z,100.00
2023-10-10T08:39:18.033Z,100.00
2023-10-10T08:41:46.485Z,100.00
2023-10-10T08:44:18.817Z,100.00
2023-10-10T08:46:49.844Z,98.79
2023-10-10T08:49:17.287Z,100.00
2023-10-10T08:51:46.310Z,96.73
2023-10-10T08:54:17.289Z,93.86
2023-10-10T08:57:11.576Z,93.07
2023-10-10T08:59:43.566Z,97.03
2023-10-10T09:02:13.727Z,96.22
2023-10-10T09:04:40.688Z,100.00
2023-10-10T09:07:12.470Z,100.00
2023-10-10T09:09:41.201Z,100.00
2023-10-10T09:12:16.188Z,100.00
2023-10-10T09:14:51.546Z,100.00
2023-10-10T09:17:46.496Z,87.58
2023-10-10T09:20:24.453Z,90.05
2023-10-10T09:23:13.365Z,90.74
2023-10-10T09:25:45.164Z,87.60
2023-10-10T09:28:16.674Z,79.85
2023-10-10T09:31:06.601Z,59.36
2023-10-10T09:33:35.184Z,51.73
2023-10-10T09:36:10.268Z,53.07
2023-10-10T09:38:45.109Z,50.64
2023-10-10T09:41:32.431Z,48.78
2023-10-10T09:44:25.464Z,52.37
2023-10-10T09:47:04.013Z,51.82
2023-10-10T09:49:53.045Z,56.19
2023-10-10T09:52:40.843Z,51.01
2023-10-10T09:55:15.553Z,54.47
2023-10-10T09:57:59.364Z,56.95
2023-10-10T10:00:34.470Z,61.07
2023-10-10T10:03:22.065Z,63.41
2023-10-10T10:06:19.332Z,57.94
2023-10-10T10:09:10.635Z,57.79
2023-10-10T10:11:53.076Z,48.31
2023-10-10T10:14:29.889Z,42.30
2023-10-10T10:17:17.314Z,40.85
2023-10-10T10:19:49.304Z,39.65
2023-10-10T10:22:18.754Z,38.38
2023-10-10T10:24:46.366Z,39.27
2023-10-10T10:27:33.201Z,39.30
2023-10-10T10:30:20.756Z,37.90
2023-10-10T10:32:54.767Z,36.32
2023-10-10T10:35:37.567Z,37.03
2023-10-10T10:38:07.926Z,38.03
2023-10-10T10:40:41.578Z,39.16
2023-10-10T10:43:15.746Z,40.44
2023-10-10T10:46:08.573Z,40.75
2023-10-10T10:48:36.725Z,46.22
2023-10-10T10:51:26.274Z,49.47
2023-10-10T10:54:03.474Z,46.63
2023-10-10T10:56:31.084Z,42.21
2023-10-10T10:59:15.325Z,42.59
2023-10-10T11:01:52.887Z,39.80
2023-10-10T11:04:44.437Z,39.49
2023-10-10T11:07:27.365Z,41.04
2023-10-10T11:09:55.901Z,43.60
2023-10-10T11:12:33.256Z,48.83
2023-10-10T11:15:06.182Z,50.69
2023-10-10T11:17:39.482Z,52.19
2023-10-10T11:20:29.377Z,58.88
2023-10-10T11:23:08.704Z,58.74
2023-10-10T11:25:48.236Z,61.61
2023-10-10T11:28:25.633Z,62.41
2023-10-10T11:30:54.443Z,62.56
2023-10-10T11:33:47.484Z,63.83
2023-10-10T11:36:31.312Z,71.90
2023-10-10T11:39:18.165Z,74.02
2023-10-10T11:41:46.757Z,71.58
2023-10-10T11:44:20.295Z,70.23
2023-10-10T11:46:48.325Z,70.26
2023-10-10T11:49:16.736Z,71.85
2023-10-10T11:51:43.629Z,70.78
2023-10-10T11:54:10.560Z,72.67
2023-10-10T11:56:37.406Z,71.35
2023-10-10T11:59:11.519Z,68.82
2023-10-10T12:01:58.704Z,66.98
2023-10-10T12:04:34.592Z,70.01
2023-10-10T12:07:06.171Z,77.36
2023-10-10T12:09:34.031Z,79.60
2023-10-10T12:12:04.258Z,79.54
2023-10-10T12:14:32.519Z,64.71
2023-10-10T12:17:00.745Z,58.04
2023-10-10T12:19:30.278Z,52.27
2023-10-10T12:22:02.662Z,48.28
2023-10-10T12:24:30.714Z,46.87
2023-10-10T12:26:57.560Z,44.79
2023-10-10T12:29:25.846Z,43.81
2023-10-10T12:31:57.040Z,43.37
2023-10-10T12:34:24.872Z,44.31
2023-10-10T12:37:00.545Z,43.26
2023-10-10T12:39:31.091Z,43.53
2023-10-10T12:41:58.372Z,42.54
2023-10-10T12:44:25.346Z,42.02
2023-10-10T12:47:00.368Z,39.88
2023-10-10T12:49:30.359Z,39.39
2023-10-10T12:51:58.323Z,39.91
2023-10-10T12:54:36.093Z,40.83
2023-10-10T12:57:07.303Z,45.82
2023-10-10T12:59:35.075Z,49.34
2023-10-10T13:02:04.885Z,48.82
2023-10-10T13:04:37.562Z,50.86
2023-10-10T13:07:05.114Z,53.38
2023-10-10T13:09:33.662Z,56.07
2023-10-10T13:12:04.327Z,57.04
2023-10-10T13:14:34.401Z,56.44
2023-10-10T13:17:22.067Z,56.32
2023-10-10T13:19:50.356Z,53.57
2023-10-10T13:22:22.175Z,61.71
2023-10-10T13:24:50.493Z,56.84
2023-10-10T13:27:19.223Z,63.90
2023-10-10T13:29:46.318Z,57.37
2023-10-10T13:32:13.418Z,63.93
2023-10-10T13:34:40.270Z,58.92
2023-10-10T13:39:45.402Z,63.15
2023-10-10T13:42:15.941Z,52.96
2023-10-10T13:44:43.805Z,57.22
2023-10-10T13:47:11.704Z,62.30
2023-10-10T13:49:45.734Z,62.18
2023-10-10T13:52:14.351Z,63.90
2023-10-10T13:54:41.387Z,70.78
2023-10-10T13:57:09.001Z,72.52
2023-10-10T13:59:36.412Z,64.08
2023-10-10T14:02:05.764Z,65.92
2023-10-10T14:04:47.564Z,72.87
2023-10-10T14:07:17.959Z,69.06
2023-10-10T14:10:02.299Z,72.73
2023-10-10T14:12:33.560Z,69.61
2023-10-10T14:15:02.718Z,73.41
2023-10-10T14:17:31.034Z,71.11
2023-10-10T14:19:59.683Z,65.99
2023-10-10T14:22:28.185Z,73.17
2023-10-10T14:24:58.919Z,77.92
2023-10-10T14:27:27.084Z,76.57
2023-10-10T14:29:56.099Z,83.57
2023-10-10T14:32:38.748Z,85.00
2023-10-10T14:35:07.016Z,79.24
2023-10-10T14:37:49.949Z,73.31
2023-10-10T14:40:20.925Z,69.14
2023-10-10T14:42:47.726Z,60.57
2023-10-10T14:45:14.619Z,54.42
2023-10-10T14:47:45.160Z,53.08
2023-10-10T14:50:14.287Z,50.93
2023-10-10T14:52:48.435Z,53.30
2023-10-10T14:55:28.912Z,52.88
2023-10-10T14:57:57.361Z,53.63
2023-10-10T15:00:26.150Z,52.31
2023-10-10T15:02:56.761Z,53.23
2023-10-10T15:05:27.797Z,51.68
2023-10-10T15:07:55.631Z,52.06
2023-10-10T15:10:27.421Z,52.02
2023-10-10T15:12:55.100Z,52.91
2023-10-10T15:15:24.280Z,52.81
2023-10-10T15:17:51.767Z,53.63
2023-10-10T15:20:18.716Z,59.51
2023-10-10T15:22:45.522Z,66.81
2023-10-10T15:25:13.012Z,70.97
2023-10-10T15:27:43.053Z,72.74
2023-10-10T15:30:10.774Z,80.39
2023-10-10T15:32:57.884Z,83.59
2023-10-10T15:35:25.326Z,85.13
2023-10-10T15:37:53.641Z,83.78
2023-10-10T15:40:23.593Z,86.38
2023-10-10T15:42:52.422Z,90.36
2023-10-10T15:45:22.667Z,94.58
2023-10-10T15:47:54.412Z,99.58
2023-10-10T15:50:25.276Z,100.00
2023-10-10T15:52:52.513Z,100.00
2023-10-10T15:55:24.568Z,100.00
2023-10-10T15:57:54.628Z,100.00
2023-10-10T16:00:31.208Z,100.00
2023-10-10T16:02:58.150Z,100.00
2023-10-10T16:05:26.583Z,100.00
2023-10-10T16:08:08.338Z,100.00
2023-10-10T16:10:38.889Z,100.00
2023-10-10T16:13:08.865Z,100.00
2023-10-10T16:15:35.728Z,100.00
2023-10-10T16:18:05.512Z,100.00
2023-10-10T16:20:36.743Z,100.00
2023-10-10T16:23:04.317Z,100.00
2023-10-10T16:25:31.158Z,100.00
2023-10-10T16:27:59.199Z,100.00
2023-10-10T16:30:26.667Z,100.00
2023-10-10T16:32:53.556Z,100.00
2023-10-10T16:35:21.918Z,100.00
2023-10-10T16:37:50.165Z,100.00
2023-10-10T16:40:18.734Z,100.00
2023-10-10T16:42:46.864Z,100.00
2023-10-10T16:45:13.916Z,100.00
2023-10-10T16:47:43.640Z,100.00
2023-10-10T16:50:11.164Z,100.00
2023-10-10T16:52:41.863Z,100.00
2023-10-10T16:55:13.568Z,100.00
2023-10-10T16:57:41.614Z,100.00
2023-10-10T17:00:14.262Z,100.00
2023-10-10T17:02:41.373Z,100.00
2023-10-10T17:05:14.708Z,100.00
2023-10-10T17:07:42.077Z,100.00
2023-10-10T17:10:14.988Z,100.00
2023-10-10T17:12:45.905Z,100.00
2023-10-10T17:15:20.189Z,100.00
2023-10-10T17:17:47.796Z,100.00
2023-10-10T17:20:18.236Z,100.00
2023-10-10T17:22:52.028Z,100.00
2023-10-10T17:25:19.619Z,100.00
2023-10-10T17:27:50.862Z,100.00
2023-10-10T17:30:17.933Z,100.00
2023-10-10T17:32:47.426Z,100.00
2023-10-10T17:35:14.664Z,100.00
2023-10-10T17:37:41.535Z,100.00
2023-10-10T17:40:14.418Z,100.00
2023-10-10T17:42:47.533Z,100.00
2023-10-10T17:45:14.603Z,100.00
2023-10-10T17:47:41.771Z,100.00
2023-10-10T17:50:09.053Z,100.00
2023-10-10T17:52:35.955Z,100.00
2023-10-10T17:55:03.163Z,100.00
2023-10-10T17:57:32.256Z,100.00
2023-10-10T18:00:00.336Z,100.00
2023-10-10T18:02:27.353Z,100.00
2023-10-10T18:04:54.994Z,100.00
2023-10-10T18:07:24.777Z,100.00
2023-10-10T18:09:55.875Z,100.00
2023-10-10T18:12:23.885Z,100.00
2023-10-10T18:14:54.958Z,100.00
2023-10-10T18:17:23.595Z,100.00
2023-10-10T18:19:51.233Z,100.00
2023-10-10T18:22:20.042Z,100.00
2023-10-10T18:24:48.686Z,100.00
2023-10-10T18:27:18.182Z,100.00
2023-10-10T18:29:45.394Z,100.00
2023-10-10T18:32:12.409Z,100.00
2023-10-10T18:34:42.955Z,100.00
2023-10-10T18:37:14.121Z,100.00
2023-10-10T18:39:43.719Z,100.00
2023-10-10T18:42:12.946Z,100.00
2023-10-10T18:44:41.207Z,100.00
2023-10-10T18:47:10.510Z,100.00
2023-10-10T18:49:37.354Z,100.00
2023-10-10T18:52:06.242Z,100.00
2023-10-10T18:54:33.555Z,100.00
2023-10-10T18:57:00.520Z,100.00
2023-10-10T18:59:29.139Z,100.00
2023-10-10T19:01:57.143Z,100.00
2023-10-10T19:04:24.311Z,100.00
2023-10-10T19:06:51.526Z,100.00
2023-10-10T19:09:19.558Z,100.00
2023-10-10T19:11:46.751Z,100.00
2023-10-10T19:14:14.379Z,100.00
2023-10-10T19:16:41.512Z,100.00
2023-10-10T19:19:08.797Z,100.00
2023-10-10T19:21:36.124Z,100.00
2023-10-10T19:24:03.337Z,100.00
2023-10-10T19:26:30.567Z,100.00
2023-10-10T19:28:58.699Z,100.00
2023-10-10T19:31:25.704Z,100.00
2023-10-10T19:33:52.738Z,100.00
2023-10-10T19:36:21.496Z,100.00
2023-10-10T19:38:49.113Z,100.00
2023-10-10T19:41:16.204Z,100.00
2023-10-10T19:43:43.211Z,100.00
2023-10-10T19:46:13.015Z,100.00
2023-10-10T19:48:43.883Z,100.00
2023-10-10T19:51:18.817Z,100.00
2023-10-10T19:53:50.528Z,100.00
2023-10-10T19:56:18.292Z,100.00
2023-10-10T19:58:47.168Z,100.00
2023-10-10T20:01:15.054Z,100.00
2023-10-10T20:03:44.715Z,100.00
2023-10-10T20:06:22.740Z,100.00
2023-10-10T20:08:54.253Z,100.00
2023-10-10T20:11:22.810Z,100.00
2023-10-10T20:13:50.693Z,100.00
2023-10-10T20:16:20.654Z,100.00
2023-10-10T20:18:48.946Z,100.00
2023-10-10T20:21:17.793Z,100.00
2023-10-10T20:23:45.451Z,100.00
2023-10-10T20:26:20.508Z,100.00
2023-10-10T20:28:49.360Z,100.00
2023-10-10T20:31:19.822Z,100.00
2023-10-10T20:33:49.053Z,100.00
2023-10-10T20:36:18.115Z,100.00
2023-10-10T20:38:45.881Z,100.00
2023-10-10T20:41:15.549Z,100.00
2023-10-10T20:43:44.084Z,100.00
2023-10-10T20:46:20.394Z,100.00
2023-10-10T20:48:48.023Z,100.00
2023-10-10T20:51:15.047Z,100.00
2023-10-10T20:53:46.962Z,100.00
2023-10-10T20:56:14.664Z,100.00
2023-10-10T20:58:41.726Z,100.00
2023-10-10T21:01:13.298Z,100.00
2023-10-10T21:03:40.559Z,100.00
2023-10-10T21:06:07.551Z,100.00
2023-10-10T21:08:34.690Z,100.00
2023-10-10T21:11:08.286Z,100.00
2023-10-10T21:13:35.958Z,100.00
2023-10-10T21:16:03.186Z,100.00
2023-10-10T21:18:30.078Z,100.00
2023-10-10T21:21:04.109Z,100.00
2023-10-10T21:23:32.458Z,100.00
2023-10-10T21:25:59.400Z,100.00
2023-10-10T21:28:26.443Z,100.00
2023-10-10T21:30:54.036Z,100.00
2023-10-10T21:33:21.038Z,100.00
2023-10-10T21:35:50.823Z,100.00
2023-10-10T21:38:18.641Z,100.00
2023-10-10T21:40:45.847Z,100.00
2023-10-10T21:43:12.912Z,100.00
2023-10-10T21:45:40.361Z,100.00
2023-10-10T21:48:10.860Z,100.00
2023-10-10T21:50:42.206Z,100.00
2023-10-10T21:53:09.431Z,100.00
2023-10-10T21:55:38.667Z,100.00
2023-10-10T21:58:06.431Z,100.00
2023-10-10T22:00:33.612Z,100.00
2023-10-10T22:03:05.947Z,100.00
2023-10-10T22:05:33.800Z,100.00
2023-10-10T22:08:01.884Z,100.00
2023-10-10T22:10:33.739Z,100.00
2023-10-10T22:13:07.878Z,100.00
2023-10-10T22:15:36.430Z,100.00
2023-10-10T22:18:07.629Z,100.00
2023-10-10T22:20:35.494Z,100.00
2023-10-10T22:23:02.754Z,100.00
2023-10-10T22:25:33.265Z,100.00
2023-10-10T22:28:02.062Z,100.00
2023-10-10T22:30:33.880Z,100.00
2023-10-10T22:33:01.474Z,100.00
2023-10-10T22:35:29.871Z,100.00
2023-10-10T22:37:59.982Z,100.00
2023-10-10T22:40:27.910Z,100.00
2023-10-10T22:42:55.853Z,100.00
2023-10-10T22:45:23.705Z,100.00
2023-10-10T22:47:54.864Z,100.00
2023-10-10T22:50:22.576Z,100.00
2023-10-10T22:52:54.311Z,100.00
2023-10-10T22:55:22.126Z,100.00
2023-10-10T22:57:52.392Z,100.00
2023-10-10T23:00:30.304Z,100.00
2023-10-10T23:02:59.752Z,100.00
2023-10-10T23:05:28.427Z,100.00
2023-10-10T23:07:58.635Z,100.00
2023-10-10T23:10:25.602Z,100.00
2023-10-10T23:12:53.420Z,100.00
2023-10-10T23:15:27.874Z,100.00
2023-10-10T23:17:59.925Z,100.00
2023-10-10T23:20:28.680Z,100.00
2023-10-10T23:23:00.019Z,100.00
2023-10-10T23:25:27.502Z,100.00
2023-10-10T23:27:57.960Z,100.00
2023-10-10T23:30:28.917Z,100.00
2023-10-10T23:32:57.737Z,100.00
2023-10-10T23:35:25.984Z,100.00
2023-10-10T23:38:01.618Z,100.00
2023-10-10T23:40:58.391Z,100.00
2023-10-10T23:43:25.222Z,100.00
2023-10-10T23:45:56.030Z,100.00
2023-10-10T23:48:30.323Z,100.00
2023-10-10T23:50:58.199Z,100.00
2023-10-10T23:53:25.092Z,100.00
2023-10-10T23:55:56.047Z,100.00
2023-10-10T23:58:26.576Z,100.00
